Time;durP1;ratioP1;P1;durP2;ratioP2;P2;SDS_P1;SDS_P2;PMS_P1;PMS_P2;Temp;Humidity;BMP_temperature;BMP_pressure;BME280_temperature;BME280_humidity;BME280_pressure;Samples;Min_cycle;Max_cycle;Signal;HPM_P1;HPM_P2
2023/01/14 00:02:08;;;;;;;2.47;1.13;;;;;;;6.54;78.36;96019.06;5076248;28;20700;-82
2023/01/14 00:04:34;;;;;;;1.60;0.83;;;;;;;6.57;78.19;96011.13;5075769;28;20212;-82
2023/01/14 00:07:01;;;;;;;0.70;0.70;;;;;;;6.65;78.16;96010.44;5074667;28;20240;-82
2023/01/14 00:09:29;;;;;;;1.57;0.80;;;;;;;6.68;77.66;96014.47;5075603;28;20228;-82
2023/01/14 00:11:56;;;;;;;1.20;0.73;;;;;;;6.57;77.78;96011.13;5075692;28;20236;-83
2023/01/14 00:14:25;;;;;;;0.83;0.83;;;;;;;6.63;77.93;96007.19;5075157;28;20204;-83
2023/01/14 00:16:52;;;;;;;1.37;0.80;;;;;;;6.63;77.58;96012.31;5075450;28;20220;-82
2023/01/14 00:19:21;;;;;;;0.67;0.67;;;;;;;6.58;77.65;96015.28;5075092;28;20200;-83
2023/01/14 00:21:47;;;;;;;2.00;0.80;;;;;;;6.53;77.84;96011.56;5075625;28;20197;-83
2023/01/14 00:24:16;;;;;;;0.83;0.80;;;;;;;6.50;77.68;96016.97;5075166;28;20204;-82
2023/01/14 00:26:43;;;;;;;1.23;0.70;;;;;;;6.58;77.64;96010.19;5075265;28;20224;-82
2023/01/14 00:29:15;;;;;;;4.07;0.90;;;;;;;6.61;77.40;96016.78;5075141;28;20197;-83
2023/01/14 00:31:44;;;;;;;1.60;0.80;;;;;;;6.65;77.32;96017.28;5075748;28;20216;-83
2023/01/14 00:34:11;;;;;;;0.70;0.70;;;;;;;6.40;77.78;96022.09;5074612;28;20227;-83
2023/01/14 00:36:37;;;;;;;0.93;0.83;;;;;;;6.30;77.88;96025.63;5074743;28;20220;-82
2023/01/14 00:39:04;;;;;;;1.87;0.80;;;;;;;6.29;77.96;96027.38;5073902;28;20227;-82
2023/01/14 00:41:31;;;;;;;0.80;0.77;;;;;;;6.30;77.96;96021.34;5074645;28;20461;-82
2023/01/14 00:44:00;;;;;;;2.70;0.90;;;;;;;6.28;77.84;96019.84;5075274;28;20197;-83
2023/01/14 00:46:28;;;;;;;0.83;0.70;;;;;;;6.21;78.30;96025.50;5074697;28;20217;-82
2023/01/14 00:48:58;;;;;;;3.20;0.87;;;;;;;6.19;78.03;96027.41;5071595;28;20204;-83
2023/01/14 00:51:25;;;;;;;1.47;0.80;;;;;;;6.13;78.04;96033.09;5075297;28;20223;-83
2023/01/14 00:53:51;;;;;;;0.87;0.70;;;;;;;6.12;78.22;96020.44;5074785;28;20211;-83
2023/01/14 00:56:20;;;;;;;1.63;0.87;;;;;;;6.02;78.86;96030.66;5075369;28;20221;-83
2023/01/14 00:58:47;;;;;;;1.47;0.90;;;;;;;6.14;78.03;96024.47;5073972;28;20788;-83
2023/01/14 01:01:15;;;;;;;3.17;1.30;;;;;;;6.13;78.09;96016.94;5075157;28;20208;-82
2023/01/14 01:03:43;;;;;;;1.73;0.80;;;;;;;6.06;78.42;96024.34;5073618;28;20215;-83
2023/01/14 01:06:13;;;;;;;2.03;0.90;;;;;;;6.10;78.43;96018.03;5074949;28;20228;-83
2023/01/14 01:08:40;;;;;;;1.83;0.80;;;;;;;6.05;78.34;96014.25;5074200;28;20209;-83
2023/01/14 01:11:07;;;;;;;1.53;0.90;;;;;;;6.01;78.39;96012.91;5073823;28;20192;-82
2023/01/14 01:13:34;;;;;;;1.67;1.00;;;;;;;6.06;78.31;96013.31;5074192;28;20208;-82
2023/01/14 01:16:03;;;;;;;1.20;0.80;;;;;;;6.03;78.49;95996.50;5074128;28;20204;-83
2023/01/14 01:18:30;;;;;;;1.17;0.90;;;;;;;5.97;78.94;96001.34;5074828;28;20212;-82
2023/01/14 01:21:08;;;;;;;1.70;0.90;;;;;;;5.92;79.30;96000.97;5074534;28;20192;-82
2023/01/14 01:23:40;;;;;;;1.93;1.00;;;;;;;5.91;79.77;96007.84;5074163;28;20212;-82
2023/01/14 01:26:08;;;;;;;4.03;1.07;;;;;;;5.94;79.49;96020.34;5074365;28;20702;-83
2023/01/14 01:28:34;;;;;;;1.67;0.90;;;;;;;5.89;79.71;96027.59;5074556;28;20201;-83
2023/01/14 01:31:01;;;;;;;1.57;0.83;;;;;;;5.83;80.25;96010.22;5074700;28;20606;-83
2023/01/14 01:33:28;;;;;;;2.53;1.10;;;;;;;5.89;79.83;96010.53;5073425;28;20189;-83
2023/01/14 01:35:59;;;;;;;1.73;0.80;;;;;;;5.82;79.64;96009.41;5074938;28;20238;-83
2023/01/14 01:38:26;;;;;;;3.97;0.90;;;;;;;5.93;79.62;96007.69;5072580;28;20228;-83
2023/01/14 01:40:53;;;;;;;2.57;1.23;;;;;;;5.93;79.72;96011.06;5073772;28;20197;-82
2023/01/14 01:43:22;;;;;;;4.00;1.00;;;;;;;6.00;79.05;96013.84;5073249;28;20601;-83
2023/01/14 01:45:50;;;;;;;2.70;0.80;;;;;;;6.02;78.79;96015.34;5073361;28;20221;-82
2023/01/14 01:48:22;;;;;;;2.80;1.10;;;;;;;6.05;78.34;96014.25;5074139;28;20204;-83
2023/01/14 01:50:53;;;;;;;2.13;0.90;;;;;;;6.01;78.88;96018.03;5074923;28;20549;-83
2023/01/14 01:53:21;;;;;;;2.63;1.00;;;;;;;6.08;78.18;96026.75;5074130;28;20212;-83
2023/01/14 01:55:51;;;;;;;2.57;0.93;;;;;;;5.98;78.91;96034.44;5074102;28;20258;-83
2023/01/14 01:58:21;;;;;;;5.17;1.20;;;;;;;6.02;78.75;96033.22;5073732;28;20189;-82
2023/01/14 02:00:48;;;;;;;3.77;1.30;;;;;;;6.07;78.57;96037.94;5074020;28;20204;-83
2023/01/14 02:03:19;;;;;;;2.20;1.00;;;;;;;6.16;78.40;96037.91;5073259;28;20635;-82
2023/01/14 02:05:47;;;;;;;1.60;0.80;;;;;;;6.23;78.03;96054.31;5073345;28;20226;-83
2023/01/14 02:08:13;;;;;;;2.70;1.00;;;;;;;6.31;77.75;96045.97;5073440;28;20279;-85
2023/01/14 02:10:56;;;;;;;3.23;1.03;;;;;;;6.44;77.09;96055.88;5074491;28;20258;-82
2023/01/14 02:13:34;;;;;;;0.80;0.80;;;;;;;6.35;77.35;96064.41;5073067;28;20200;-83
2023/01/14 02:16:10;;;;;;;4.60;1.20;;;;;;;6.32;77.54;96062.13;5073608;28;20189;-82
2023/01/14 02:18:47;;;;;;;3.73;1.10;;;;;;;6.33;77.92;96063.72;5053453;28;20230;-83
2023/01/14 02:21:22;;;;;;;2.03;1.23;;;;;;;6.35;77.85;96072.84;5061795;28;20193;-82
2023/01/14 02:24:21;;;;;;;3.47;1.20;;;;;;;6.41;77.40;96069.75;5074332;28;20195;-82
2023/01/14 02:27:17;;;;;;;2.87;1.10;;;;;;;6.36;77.71;96069.34;5073059;28;20229;-83
2023/01/14 02:30:18;;;;;;;5.27;1.23;;;;;;;6.36;77.95;96065.97;5067134;28;20283;-82
2023/01/14 02:32:51;;;;;;;2.60;1.30;;;;;;;6.40;77.79;96059.66;5041971;28;20203;-83
2023/01/14 02:35:28;;;;;;;2.53;1.03;;;;;;;6.47;77.25;96070.94;5072608;28;20254;-83
2023/01/14 02:38:04;;;;;;;3.03;1.23;;;;;;;6.49;77.41;96076.72;5072749;28;20273;-83
2023/01/14 02:40:34;;;;;;;4.00;1.50;;;;;;;6.51;77.43;96078.22;5072441;28;20188;-83
2023/01/14 02:45:58;;;;;;;2.53;1.13;;;;;;;6.58;76.91;96065.66;5072378;28;20242;-82
2023/01/14 02:48:26;;;;;;;3.33;1.07;;;;;;;6.59;76.72;96069.81;5072582;28;20196;-82
2023/01/14 02:50:53;;;;;;;2.37;1.00;;;;;;;6.52;77.14;96069.59;5072971;28;20254;-83
2023/01/14 02:53:20;;;;;;;3.90;1.30;;;;;;;6.46;77.39;96062.47;5072887;28;20196;-83
2023/01/14 02:55:49;;;;;;;2.13;1.10;;;;;;;6.45;77.80;96060.03;5072695;28;20195;-83
2023/01/14 02:58:32;;;;;;;2.23;1.13;;;;;;;6.46;77.73;96059.09;5072205;28;20208;-82
2023/01/14 03:01:15;;;;;;;2.23;1.00;;;;;;;6.47;77.93;96050.50;5070360;28;20902;-83
2023/01/14 03:03:58;;;;;;;1.83;1.10;;;;;;;6.49;77.95;96054.53;5072638;28;20528;-83
2023/01/14 03:06:34;;;;;;;2.40;0.90;;;;;;;6.52;77.71;96067.03;5072574;28;20221;-83
2023/01/14 03:09:04;;;;;;;1.53;0.97;;;;;;;6.59;77.65;96074.94;5072193;28;20199;-83
2023/01/14 03:11:39;;;;;;;1.00;0.80;;;;;;;6.62;77.54;96071.31;5072268;28;20691;-83
2023/01/14 03:14:12;;;;;;;2.50;1.00;;;;;;;6.64;77.45;96070.22;5052149;28;20204;-83
2023/01/14 03:16:45;;;;;;;2.70;0.87;;;;;;;6.62;77.40;96063.63;5069787;28;20228;-83
2023/01/14 03:19:15;;;;;;;3.27;1.27;;;;;;;6.63;77.38;96065.25;5063266;28;20246;-83
2023/01/14 03:21:46;;;;;;;2.70;1.00;;;;;;;6.57;77.64;96071.72;5072658;28;20200;-82
2023/01/14 03:24:17;;;;;;;2.27;0.90;;;;;;;6.59;77.91;96064.72;5072273;28;20258;-83
2023/01/14 03:26:47;;;;;;;3.63;1.00;;;;;;;6.49;78.56;96058.84;5072120;28;20232;-83
2023/01/14 03:29:18;;;;;;;3.07;0.90;;;;;;;6.53;78.13;96065.28;5072092;28;20205;-83
2023/01/14 03:31:52;;;;;;;3.33;1.03;;;;;;;6.51;78.25;96065.44;5071838;28;20672;-82
2023/01/14 03:34:25;;;;;;;2.63;1.00;;;;;;;6.55;78.35;96061.63;5072777;28;20231;-83
2023/01/14 03:36:54;;;;;;;2.87;1.20;;;;;;;6.68;77.56;96052.84;5072235;28;20224;-83
2023/01/14 03:39:23;;;;;;;2.43;1.13;;;;;;;6.74;77.46;96052.25;5070812;28;20391;-83
2023/01/14 03:44:44;;;;;;;6.97;1.20;;;;;;;6.85;76.75;96054.66;5052481;28;20204;-83
2023/01/14 03:47:12;;;;;;;2.60;0.90;;;;;;;6.70;77.51;96056.06;5064919;28;20220;-83
2023/01/14 03:49:39;;;;;;;1.63;1.03;;;;;;;6.76;77.63;96051.16;5071942;28;20223;-83
2023/01/14 03:52:13;;;;;;;2.30;1.10;;;;;;;6.76;77.86;96058.84;5071942;28;20266;-83
2023/01/14 03:54:45;;;;;;;2.97;0.93;;;;;;;6.79;77.44;96055.22;5072658;28;20284;-82
2023/01/14 03:57:17;;;;;;;2.53;1.30;;;;;;;6.70;77.86;96049.19;5071960;28;20221;-83
2023/01/14 03:59:49;;;;;;;1.90;1.00;;;;;;;6.74;77.28;96059.94;5072851;28;20634;-83
2023/01/14 04:02:19;;;;;;;2.97;0.90;;;;;;;6.77;77.71;96051.97;5072315;28;20227;-83
2023/01/14 04:04:46;;;;;;;1.50;0.83;;;;;;;6.71;77.68;96057.69;5071414;28;20199;-82
2023/01/14 04:07:13;;;;;;;4.60;1.17;;;;;;;6.72;77.57;96049.88;5071001;28;20229;-83
2023/01/14 04:09:39;;;;;;;2.63;0.90;;;;;;;6.81;77.41;96048.19;5071417;28;20197;-83
2023/01/14 04:12:06;;;;;;;2.60;1.50;;;;;;;6.74;77.39;96057.38;5074599;28;20208;-82
2023/01/14 04:17:18;;;;;;;1.50;0.90;;;;;;;6.72;77.62;96059.28;5074556;28;20266;-83
2023/01/14 04:19:45;;;;;;;2.23;0.90;;;;;;;6.66;77.55;96060.66;5074618;28;20192;-82
2023/01/14 04:22:11;;;;;;;2.63;1.20;;;;;;;6.74;77.60;96057.38;5074446;28;20193;-82
2023/01/14 04:24:37;;;;;;;3.50;1.23;;;;;;;6.79;77.28;96058.56;5075310;28;20201;-83
2023/01/14 04:27:04;;;;;;;5.80;1.30;;;;;;;6.78;76.96;96059.50;5074721;28;20221;-83
2023/01/14 04:29:30;;;;;;;1.73;1.10;;;;;;;6.85;76.96;96060.56;5074809;28;20572;-82
2023/01/14 04:31:57;;;;;;;3.30;1.17;;;;;;;6.86;76.71;96058.81;5074427;28;20201;-83
2023/01/14 04:34:25;;;;;;;1.97;0.83;;;;;;;6.81;76.71;96055.88;5075182;28;20571;-83
2023/01/14 04:36:51;;;;;;;2.80;0.90;;;;;;;6.80;76.50;96052.50;5074645;28;20222;-82
2023/01/14 04:39:17;;;;;;;2.00;1.03;;;;;;;6.87;76.45;96056.13;5073417;28;20207;-83
2023/01/14 04:44:28;;;;;;;1.93;1.00;;;;;;;6.91;76.18;96054.09;5061997;28;20745;-82
2023/01/14 04:46:54;;;;;;;2.63;1.00;;;;;;;6.99;76.15;96056.72;5074326;28;20225;-82
2023/01/14 04:49:21;;;;;;;3.97;1.20;;;;;;;6.99;75.95;96059.28;5073603;28;20559;-83
2023/01/14 04:51:49;;;;;;;2.50;1.30;;;;;;;7.04;75.65;96057.13;5073873;28;20197;-83
2023/01/14 04:54:15;;;;;;;4.87;1.20;;;;;;;7.03;76.09;96049.56;5074122;28;20209;-82
2023/01/14 04:56:41;;;;;;;1.97;1.17;;;;;;;7.03;75.71;96059.81;5074003;28;20213;-82
2023/01/14 04:59:09;;;;;;;3.20;1.00;;;;;;;7.00;75.70;96058.34;5074790;28;20258;-83
2023/01/14 05:01:35;;;;;;;3.27;1.13;;;;;;;6.97;75.84;96053.50;5073280;28;20217;-83
2023/01/14 05:04:02;;;;;;;2.07;1.30;;;;;;;6.93;75.92;96049.59;5069663;28;20212;-83
2023/01/14 05:06:31;;;;;;;3.83;1.20;;;;;;;6.93;75.82;96045.28;5073866;28;20224;-83
2023/01/14 05:08:59;;;;;;;4.40;1.40;;;;;;;6.97;75.34;96050.94;5073831;28;20201;-82
2023/01/14 05:11:25;;;;;;;3.53;1.20;;;;;;;6.94;75.33;96041.78;5074449;28;20197;-82
2023/01/14 05:13:52;;;;;;;4.00;1.50;;;;;;;6.99;75.16;96043.94;5074325;28;20212;-83
2023/01/14 05:16:18;;;;;;;2.03;1.07;;;;;;;6.95;75.47;96045.16;5074305;28;20631;-82
2023/01/14 05:18:45;;;;;;;2.87;1.07;;;;;;;6.93;75.68;96052.97;5074519;28;20227;-82
2023/01/14 05:21:12;;;;;;;4.40;1.13;;;;;;;6.88;76.06;96052.63;5073377;28;20201;-82
2023/01/14 05:23:38;;;;;;;3.53;1.20;;;;;;;6.92;75.54;96061.63;5074351;28;20196;-83
2023/01/14 05:26:07;;;;;;;4.20;1.20;;;;;;;6.96;75.96;96056.19;5074697;28;20225;-83
2023/01/14 05:28:33;;;;;;;2.40;1.20;;;;;;;6.97;75.52;96052.69;5060289;28;20193;-83
2023/01/14 05:31:03;;;;;;;5.57;1.50;;;;;;;6.96;75.78;96048.53;5065168;28;20213;-83
2023/01/14 05:33:29;;;;;;;2.60;1.27;;;;;;;6.95;75.59;96050.28;5065390;28;20193;-82
2023/01/14 05:35:56;;;;;;;3.67;1.20;;;;;;;7.00;75.22;96048.09;5059243;28;20202;-82
2023/01/14 05:38:23;;;;;;;1.63;1.00;;;;;;;7.03;75.37;96045.25;5072336;28;20665;-83
2023/01/14 05:40:49;;;;;;;1.67;0.90;;;;;;;6.99;75.50;96041.38;5073309;28;20231;-83
2023/01/14 05:46:05;;;;;;;2.80;1.20;;;;;;;7.07;74.83;96035.53;5073216;28;20227;-83
2023/01/14 05:48:32;;;;;;;2.33;1.27;;;;;;;7.00;75.42;96039.63;5072994;28;20197;-83
2023/01/14 05:51:00;;;;;;;1.83;1.27;;;;;;;7.03;75.23;96032.47;5073078;28;20205;-84
2023/01/14 05:53:27;;;;;;;3.70;1.43;;;;;;;7.06;74.58;96032.19;5074791;28;20205;-83
2023/01/14 05:55:55;;;;;;;4.53;1.40;;;;;;;7.04;74.97;96028.94;5064660;28;20224;-83
2023/01/14 05:58:26;;;;;;;2.90;1.10;;;;;;;7.04;74.65;96023.84;5072994;28;20196;-83
2023/01/14 06:06:25;;;;;;;3.63;1.10;;;;;;;7.00;74.47;96022.50;5072616;28;20231;-83
2023/01/14 06:08:54;;;;;;;2.37;1.10;;;;;;;7.01;74.27;96025.88;5073861;28;20193;-83
2023/01/14 06:11:32;;;;;;;4.33;1.30;;;;;;;7.00;74.28;96034.50;5059787;28;20239;-83
2023/01/14 06:14:01;;;;;;;2.43;1.30;;;;;;;6.90;74.38;96025.13;5073848;28;20842;-83
2023/01/14 06:16:30;;;;;;;2.27;0.90;;;;;;;6.90;74.39;96021.75;5073343;28;20270;-83
2023/01/14 06:18:57;;;;;;;3.80;1.13;;;;;;;6.91;74.34;96016.50;5072909;28;20200;-83
2023/01/14 06:21:28;;;;;;;2.40;1.27;;;;;;;6.89;74.43;96015.84;5073936;28;20197;-83
2023/01/14 06:23:56;;;;;;;4.27;1.37;;;;;;;6.88;74.23;96023.66;5075710;28;20782;-83
2023/01/14 06:26:27;;;;;;;2.07;1.30;;;;;;;6.89;74.32;96015.03;5073014;28;20224;-83
2023/01/14 06:28:55;;;;;;;13.73;4.13;;;;;;;6.84;78.17;96024.88;5073732;28;20283;-83
2023/01/14 06:31:23;;;;;;;11.97;3.63;;;;;;;6.82;79.77;96030.13;5072972;28;20208;-81
2023/01/14 06:33:50;;;;;;;16.03;2.13;;;;;;;6.86;77.17;96026.34;5072945;28;20573;-80
2023/01/14 06:36:16;;;;;;;6.73;1.37;;;;;;;6.84;75.58;96020.56;5072781;28;20223;-82
2023/01/14 06:38:42;;;;;;;7.33;2.30;;;;;;;6.82;75.03;96017.34;5072906;28;20205;-82
2023/01/14 06:41:11;;;;;;;9.37;5.17;;;;;;;6.78;74.97;96021.13;5073933;28;20207;-82
2023/01/14 06:43:40;;;;;;;6.67;3.77;;;;;;;6.79;75.00;96011.69;5073472;28;20222;-82
2023/01/14 06:46:06;;;;;;;4.70;2.60;;;;;;;6.78;74.50;96016.00;5072317;28;20224;-81
2023/01/14 06:48:34;;;;;;;3.47;1.60;;;;;;;6.76;74.32;96009.41;5073985;28;20200;-85
2023/01/14 06:51:04;;;;;;;2.77;1.40;;;;;;;6.74;74.48;96008.75;5072160;28;20204;-84
2023/01/14 06:53:31;;;;;;;7.37;4.70;;;;;;;6.77;74.18;96004.16;5073175;28;20193;-85
2023/01/14 06:56:01;;;;;;;7.17;4.87;;;;;;;6.78;73.79;95989.63;5073657;28;20201;-84
2023/01/14 06:58:27;;;;;;;6.57;2.50;;;;;;;6.75;73.62;96000.13;5073295;28;20201;-84
2023/01/14 07:00:54;;;;;;;3.17;1.60;;;;;;;6.73;73.74;96004.63;5073973;28;20660;-83
2023/01/14 07:03:21;;;;;;;3.87;1.60;;;;;;;6.67;73.61;96005.16;5073295;28;20201;-84
2023/01/14 07:05:49;;;;;;;5.00;1.77;;;;;;;6.62;73.77;96005.59;5074300;28;20282;-84
2023/01/14 07:08:15;;;;;;;5.97;1.70;;;;;;;6.66;73.46;96006.94;5072577;28;20220;-84
2023/01/14 07:10:42;;;;;;;3.77;1.87;;;;;;;6.63;73.23;96004.66;5063027;28;20201;-84
2023/01/14 07:13:08;;;;;;;8.20;1.63;;;;;;;6.62;73.45;95995.34;5073858;28;20268;-84
2023/01/14 07:15:34;;;;;;;4.77;1.47;;;;;;;6.66;73.27;95985.66;5073705;28;20197;-84
2023/01/14 07:18:01;;;;;;;3.53;1.70;;;;;;;6.73;72.58;95996.94;5073209;28;20266;-84
2023/01/14 07:20:27;;;;;;;6.13;1.50;;;;;;;6.74;72.74;95985.72;5072653;28;20257;-84
2023/01/14 07:22:55;;;;;;;3.10;1.70;;;;;;;6.80;72.41;95985.16;5072473;28;20201;-84
2023/01/14 07:25:21;;;;;;;3.77;1.60;;;;;;;6.83;72.17;95970.34;5072536;28;20224;-84
2023/01/14 07:27:48;;;;;;;2.47;1.67;;;;;;;6.84;72.03;95973.69;5071328;28;20220;-83
2023/01/14 07:30:14;;;;;;;2.20;1.40;;;;;;;6.85;71.96;95965.06;5071812;28;20664;-84
2023/01/14 07:32:41;;;;;;;7.53;2.67;;;;;;;7.03;86.95;95967.66;5072424;28;20208;-84
2023/01/14 07:35:08;;;;;;;7.30;1.67;;;;;;;7.49;88.52;95967.44;5073522;28;20201;-83
2023/01/14 07:37:34;;;;;;;6.87;1.87;;;;;;;7.92;82.32;95961.50;5073183;28;20275;-85
2023/01/14 07:40:03;;;;;;;3.87;1.60;;;;;;;8.00;70.83;95957.38;5071961;28;20201;-84
2023/01/14 07:42:29;;;;;;;6.10;1.70;;;;;;;7.95;69.88;95948.38;5073327;28;20201;-85
2023/01/14 07:44:55;;;;;;;5.20;2.07;;;;;;;7.90;69.02;95949.78;5074522;28;20204;-84
2023/01/14 07:47:22;;;;;;;6.77;2.00;;;;;;;7.86;69.10;95945.94;5076009;28;20673;-85
2023/01/14 07:49:48;;;;;;;6.80;1.70;;;;;;;7.92;69.35;95946.09;5076713;28;20242;-84
2023/01/14 07:52:15;;;;;;;3.80;1.80;;;;;;;7.95;69.16;95943.25;5076948;28;20208;-85
2023/01/14 07:54:42;;;;;;;3.93;1.50;;;;;;;7.94;67.89;95941.63;5077969;28;20208;-84
2023/01/14 07:57:11;;;;;;;5.03;1.87;;;;;;;7.92;68.09;95930.72;5076385;28;20208;-85
2023/01/14 07:59:39;;;;;;;3.37;1.50;;;;;;;7.95;67.99;95932.19;5076788;28;20205;-85
2023/01/14 08:02:09;;;;;;;3.10;2.00;;;;;;;8.04;67.67;95938.19;5076457;28;20213;-84
2023/01/14 08:04:36;;;;;;;7.03;2.27;;;;;;;8.05;66.92;95930.34;5076719;28;20193;-85
2023/01/14 08:07:05;;;;;;;4.60;1.57;;;;;;;8.08;66.48;95937.69;5075802;28;20696;-84
2023/01/14 08:09:32;;;;;;;6.73;1.93;;;;;;;8.04;66.90;95935.63;5075094;28;20242;-85
2023/01/14 08:11:58;;;;;;;9.33;2.60;;;;;;;8.00;66.76;95927.41;5074496;28;20280;-85
2023/01/14 08:14:27;;;;;;;4.53;2.13;;;;;;;7.93;67.03;95928.97;5078063;28;20605;-85
2023/01/14 08:16:54;;;;;;;6.63;2.10;;;;;;;7.89;67.10;95930.22;5077543;28;20911;-85
2023/01/14 08:19:20;;;;;;;5.67;1.93;;;;;;;7.82;66.94;95919.78;5077513;28;20197;-84
2023/01/14 08:21:47;;;;;;;7.63;2.17;;;;;;;7.89;67.09;95918.19;5078276;28;20231;-85
2023/01/14 08:24:23;;;;;;;6.57;2.10;;;;;;;8.07;66.79;95915.59;5076852;28;20213;-85
2023/01/14 08:26:49;;;;;;;9.23;2.23;;;;;;;8.30;66.52;95924.34;5076611;28;20235;-85
2023/01/14 08:29:17;;;;;;;6.73;2.10;;;;;;;8.56;65.36;95918.38;5077926;28;20250;-84
2023/01/14 08:31:45;;;;;;;4.63;1.67;;;;;;;8.74;64.63;95918.28;5075805;28;20233;-85
2023/01/14 08:34:13;;;;;;;3.27;1.70;;;;;;;8.85;64.04;95918.00;5076780;28;20216;-87
2023/01/14 08:36:39;;;;;;;4.97;1.67;;;;;;;8.96;63.36;95904.84;5075363;28;20248;-85
2023/01/14 08:39:10;;;;;;;5.47;2.13;;;;;;;9.12;63.03;95907.44;5075165;28;20201;-86
2023/01/14 08:41:40;;;;;;;5.73;1.90;;;;;;;9.22;62.30;95907.28;5075943;28;20219;-86
2023/01/14 08:44:09;;;;;;;6.83;1.87;;;;;;;9.39;61.36;95901.19;5075633;28;20205;-86
2023/01/14 08:46:41;;;;;;;5.90;2.10;;;;;;;9.46;61.65;95896.19;5075328;28;20233;-86
2023/01/14 08:49:10;;;;;;;7.23;2.00;;;;;;;9.57;60.84;95891.53;5073267;28;20219;-85
2023/01/14 08:51:37;;;;;;;6.97;2.13;;;;;;;9.65;59.68;95888.94;5073624;28;20219;-84
2023/01/14 08:54:03;;;;;;;4.90;1.63;;;;;;;9.69;59.35;95882.50;5076519;28;20189;-85
2023/01/14 08:56:30;;;;;;;4.17;1.63;;;;;;;9.69;58.75;95872.22;5075856;28;20737;-84
2023/01/14 08:58:57;;;;;;;4.47;2.07;;;;;;;9.69;58.64;95872.22;5077234;28;20208;-85
2023/01/14 09:01:23;;;;;;;2.83;1.37;;;;;;;9.71;58.42;95866.91;5075901;28;20201;-84
2023/01/14 09:03:51;;;;;;;4.63;1.57;;;;;;;9.62;57.73;95863.53;5075708;28;20201;-85
2023/01/14 09:06:28;;;;;;;4.43;1.30;;;;;;;9.71;57.54;95861.78;5077901;28;20244;-85
2023/01/14 09:17:21;;;;;;;3.70;1.70;;;;;;;10.33;57.32;95860.16;5018514;28;20225;-84
2023/01/14 09:19:50;;;;;;;3.47;1.60;;;;;;;10.43;55.99;95851.41;5075453;28;20193;-84
2023/01/14 09:22:21;;;;;;;3.23;1.40;;;;;;;10.39;56.50;95853.56;5076024;28;20197;-84
2023/01/14 09:24:48;;;;;;;2.87;1.67;;;;;;;10.17;57.01;95852.47;5075846;28;20200;-83
2023/01/14 09:27:15;;;;;;;4.50;1.47;;;;;;;10.14;57.33;95859.72;5074767;28;20231;-84
2023/01/14 09:29:42;;;;;;;3.43;1.57;;;;;;;10.35;56.85;95865.94;5075324;28;20200;-85
2023/01/14 09:32:17;;;;;;;2.27;1.33;;;;;;;10.39;54.41;95871.56;5074677;28;20205;-84
2023/01/14 09:34:47;;;;;;;3.27;1.30;;;;;;;10.43;54.47;95857.38;5075985;28;20224;-85
2023/01/14 09:37:14;;;;;;;1.40;1.17;;;;;;;10.49;54.72;95858.47;5074691;28;20219;-85
2023/01/14 09:39:42;;;;;;;1.97;1.20;;;;;;;10.38;53.62;95868.19;5075055;28;20204;-85
2023/01/14 09:42:14;;;;;;;1.40;1.03;;;;;;;10.50;54.46;95860.06;5075199;28;20231;-84
2023/01/14 09:44:43;;;;;;;2.40;1.00;;;;;;;10.41;54.08;95858.50;5075453;28;20193;-85
2023/01/14 09:47:13;;;;;;;1.70;1.03;;;;;;;10.17;54.13;95849.91;5073996;28;20242;-85
2023/01/14 09:49:41;;;;;;;2.07;1.20;;;;;;;10.08;55.40;95848.31;5054846;28;20297;-84
2023/01/14 09:52:45;;;;;;;1.50;1.03;;;;;;;10.17;54.55;95837.03;5071446;28;20274;-85
2023/01/14 09:55:19;;;;;;;2.13;1.30;;;;;;;10.05;54.79;95834.03;5073374;28;20276;-85
2023/01/14 09:57:51;;;;;;;1.40;0.90;;;;;;;10.03;55.89;95837.72;5060080;28;20217;-85
2023/01/14 10:00:32;;;;;;;2.83;1.70;;;;;;;9.92;55.95;95838.91;5076431;28;20200;-84
2023/01/14 10:03:16;;;;;;;3.40;1.40;;;;;;;9.81;55.96;95846.19;5055464;28;20558;-85
2023/01/14 10:05:46;;;;;;;2.10;1.23;;;;;;;9.85;56.76;95826.84;5059201;28;20197;-84
2023/01/14 10:08:15;;;;;;;1.37;1.27;;;;;;;9.92;56.99;95814.94;5072333;28;20288;-85
2023/01/14 10:10:45;;;;;;;1.87;0.90;;;;;;;9.80;56.31;95808.56;5073411;28;20204;-85
2023/01/14 10:13:18;;;;;;;2.23;1.10;;;;;;;9.77;56.92;95811.47;5073315;28;20204;-85
2023/01/14 10:15:49;;;;;;;1.47;0.93;;;;;;;9.75;56.94;95803.94;5073621;28;20200;-85
2023/01/14 10:18:22;;;;;;;1.93;1.13;;;;;;;9.68;56.51;95795.25;5085265;28;20216;-85
2023/01/14 10:20:53;;;;;;;2.17;1.20;;;;;;;9.77;56.94;95791.72;5085515;28;20201;-84
2023/01/14 10:23:23;;;;;;;3.07;1.13;;;;;;;9.80;57.18;95783.66;5086261;28;20473;-84
2023/01/14 10:25:52;;;;;;;3.03;1.37;;;;;;;9.84;56.88;95772.06;5086122;28;20679;-85
2023/01/14 10:28:24;;;;;;;1.60;1.00;;;;;;;9.91;57.24;95769.63;5085402;28;20231;-84
2023/01/14 10:30:58;;;;;;;3.10;1.10;;;;;;;9.92;57.08;95768.66;5083127;28;20201;-84
2023/01/14 10:33:26;;;;;;;1.83;1.07;;;;;;;10.03;56.35;95757.97;5084243;28;20253;-85
2023/01/14 10:35:58;;;;;;;1.30;1.10;;;;;;;10.17;56.05;95756.47;5084392;28;20196;-84
2023/01/14 10:38:26;;;;;;;1.73;1.03;;;;;;;10.16;56.07;95753.09;5083002;28;20224;-84
2023/01/14 10:40:59;;;;;;;1.87;1.10;;;;;;;10.04;55.04;95750.09;5084926;28;20208;-84
2023/01/14 10:43:32;;;;;;;1.17;0.93;;;;;;;10.17;55.78;95741.03;5081944;28;20189;-85
2023/01/14 10:45:59;;;;;;;1.63;1.17;;;;;;;10.07;55.70;95736.09;5078637;28;20208;-85
2023/01/14 10:48:27;;;;;;;1.40;1.10;;;;;;;10.02;56.57;95738.38;5078871;28;20323;-85
2023/01/14 10:50:54;;;;;;;2.90;1.30;;;;;;;10.01;56.38;95741.91;5078923;28;20204;-85
2023/01/14 10:53:22;;;;;;;3.33;1.00;;;;;;;10.05;55.85;95730.31;5078097;28;20201;-84
2023/01/14 10:55:53;;;;;;;2.13;1.00;;;;;;;10.04;55.86;95726.16;5078535;28;20189;-85
2023/01/14 10:58:27;;;;;;;1.43;0.97;;;;;;;9.99;55.37;95725.88;5077900;28;20318;-85
2023/01/14 11:01:01;;;;;;;2.40;0.90;;;;;;;9.94;54.71;95720.44;5077292;28;20204;-85
2023/01/14 11:03:32;;;;;;;1.77;1.10;;;;;;;10.02;55.53;95717.78;5077987;28;20280;-85
2023/01/14 11:06:02;;;;;;;1.50;1.20;;;;;;;10.13;55.32;95721.78;5077249;28;20228;-84
2023/01/14 11:08:36;;;;;;;3.33;1.47;;;;;;;10.08;54.82;95709.41;5077194;28;20212;-84
2023/01/14 11:11:07;;;;;;;0.83;0.83;;;;;;;10.01;54.98;95696.41;5078693;28;20184;-83
2023/01/14 11:13:41;;;;;;;1.53;1.10;;;;;;;10.05;54.79;95689.97;5078805;28;20212;-85
2023/01/14 11:16:28;;;;;;;2.87;1.90;;;;;;;10.09;54.46;95676.75;5077893;28;20250;-85
2023/01/14 11:18:57;;;;;;;1.00;0.90;;;;;;;10.00;54.34;95671.69;5077872;28;20204;-84
2023/01/14 11:21:25;;;;;;;3.77;1.50;;;;;;;10.09;55.15;95661.34;5080897;28;20208;-85
2023/01/14 11:23:57;;;;;;;1.53;1.07;;;;;;;10.12;53.99;95658.41;5080215;28;20201;-85
2023/01/14 11:26:27;;;;;;;3.00;1.50;;;;;;;10.19;53.89;95643.94;5080258;28;20212;-84
2023/01/14 11:29:03;;;;;;;2.10;1.17;;;;;;;10.24;54.45;95647.56;5079993;28;20227;-85
2023/01/14 11:31:32;;;;;;;2.30;1.13;;;;;;;10.28;54.62;95637.75;5080791;28;20621;-85
2023/01/14 11:33:59;;;;;;;1.60;0.97;;;;;;;10.15;54.33;95640.06;5080703;28;20215;-85
2023/01/14 11:36:28;;;;;;;1.13;1.00;;;;;;;10.09;53.45;95627.88;5079917;28;20595;-85
2023/01/14 11:38:57;;;;;;;2.60;1.27;;;;;;;10.11;53.96;95620.81;5078921;28;20189;-84
2023/01/14 11:41:39;;;;;;;1.17;0.80;;;;;;;10.10;52.63;95611.47;5080560;28;20193;-85
2023/01/14 11:44:21;;;;;;;1.17;0.90;;;;;;;10.11;53.17;95608.75;5079991;28;20193;-85
2023/01/14 11:47:10;;;;;;;1.17;1.03;;;;;;;10.15;52.55;95614.34;5079966;28;20212;-85
2023/01/14 11:49:40;;;;;;;1.40;0.80;;;;;;;10.23;52.96;95596.28;5080030;28;20208;-84
2023/01/14 11:52:17;;;;;;;2.83;1.10;;;;;;;10.35;52.99;95594.91;5079699;28;20204;-83
2023/01/14 11:54:44;;;;;;;1.53;1.10;;;;;;;10.39;52.84;95596.94;5080057;28;20224;-85
2023/01/14 11:57:15;;;;;;;1.00;0.90;;;;;;;10.32;51.55;95592.69;5079236;28;20240;-85
2023/01/14 11:59:44;;;;;;;0.70;0.70;;;;;;;10.35;51.27;95598.28;5079111;28;20192;-85
2023/01/14 12:02:18;;;;;;;1.27;0.90;;;;;;;10.34;50.93;95588.16;5080107;28;20212;-85
2023/01/14 12:04:50;;;;;;;1.60;0.97;;;;;;;10.31;50.51;95581.59;5079672;28;20197;-84
2023/01/14 12:07:24;;;;;;;0.70;0.70;;;;;;;10.24;49.35;95574.72;5079325;28;20217;-85
2023/01/14 12:09:55;;;;;;;1.10;0.83;;;;;;;10.26;49.96;95563.28;5078394;28;20224;-85
2023/01/14 12:12:26;;;;;;;0.83;0.80;;;;;;;10.25;50.18;95564.25;5078822;28;20292;-85
2023/01/14 12:17:51;;;;;;;3.10;0.80;;;;;;;10.32;50.38;95554.06;5078828;28;20334;-85
2023/01/14 12:20:21;;;;;;;1.80;0.80;;;;;;;10.37;49.98;95544.88;5077904;28;20193;-85
2023/01/14 12:22:52;;;;;;;1.37;1.00;;;;;;;10.42;50.00;95541.75;5077996;28;20250;-85